sensor_id;sensor_type;location;lat;lon;timestamp;P1;durP1;ratioP1;P2;durP2;ratioP2
19782;SDS011;10051;40.294;-3.754;2023-06-04T00:00:30;5.53;;;4.20;;
19782;SDS011;10051;40.294;-3.754;2023-06-04T00:02:57;6.30;;;4.28;;
19782;SDS011;10051;40.294;-3.754;2023-06-04T00:05:23;6.47;;;4.43;;
19782;SDS011;10051;40.294;-3.754;2023-06-04T00:07:51;7.13;;;4.55;;
19782;SDS011;10051;40.294;-3.754;2023-06-04T00:10:17;7.88;;;4.43;;
19782;SDS011;10051;40.294;-3.754;2023-06-04T00:12:43;6.28;;;4.00;;
19782;SDS011;10051;40.294;-3.754;2023-06-04T00:15:08;7.70;;;4.18;;
19782;SDS011;10051;40.294;-3.754;2023-06-04T00:17:35;6.47;;;4.05;;
19782;SDS011;10051;40.294;-3.754;2023-06-04T00:20:01;7.15;;;4.10;;
19782;SDS011;10051;40.294;-3.754;2023-06-04T00:22:27;5.28;;;3.83;;
19782;SDS011;10051;40.294;-3.754;2023-06-04T00:24:52;5.45;;;4.15;;
19782;SDS011;10051;40.294;-3.754;2023-06-04T00:27:18;7.18;;;4.28;;
19782;SDS011;10051;40.294;-3.754;2023-06-04T00:29:50;8.90;;;4.43;;
19782;SDS011;10051;40.294;-3.754;2023-06-04T00:32:16;5.30;;;3.80;;
19782;SDS011;10051;40.294;-3.754;2023-06-04T00:34:41;7.65;;;4.60;;
19782;SDS011;10051;40.294;-3.754;2023-06-04T00:37:07;6.15;;;4.18;;
19782;SDS011;10051;40.294;-3.754;2023-06-04T00:39:33;9.50;;;4.68;;
19782;SDS011;10051;40.294;-3.754;2023-06-04T00:42:02;8.95;;;4.40;;
19782;SDS011;10051;40.294;-3.754;2023-06-04T00:44:30;7.28;;;4.45;;
19782;SDS011;10051;40.294;-3.754;2023-06-04T00:46:57;6.28;;;4.53;;
19782;SDS011;10051;40.294;-3.754;2023-06-04T00:49:22;6.38;;;4.50;;
19782;SDS011;10051;40.294;-3.754;2023-06-04T00:51:49;6.18;;;4.20;;
19782;SDS011;10051;40.294;-3.754;2023-06-04T00:54:15;5.85;;;4.38;;
19782;SDS011;10051;40.294;-3.754;2023-06-04T00:56:43;7.57;;;4.38;;
19782;SDS011;10051;40.294;-3.754;2023-06-04T00:59:12;5.60;;;4.20;;
19782;SDS011;10051;40.294;-3.754;2023-06-04T01:04:12;7.28;;;4.10;;
19782;SDS011;10051;40.294;-3.754;2023-06-04T01:06:45;5.85;;;4.10;;
19782;SDS011;10051;40.294;-3.754;2023-06-04T01:09:16;5.13;;;3.67;;
19782;SDS011;10051;40.294;-3.754;2023-06-04T01:11:43;5.00;;;4.00;;
19782;SDS011;10051;40.294;-3.754;2023-06-04T01:14:09;6.55;;;4.13;;
19782;SDS011;10051;40.294;-3.754;2023-06-04T01:27:57;7.63;;;4.63;;
19782;SDS011;10051;40.294;-3.754;2023-06-04T01:30:37;6.25;;;4.55;;
19782;SDS011;10051;40.294;-3.754;2023-06-04T01:33:11;6.80;;;4.05;;
19782;SDS011;10051;40.294;-3.754;2023-06-04T01:35:38;6.45;;;4.43;;
19782;SDS011;10051;40.294;-3.754;2023-06-04T01:38:07;6.72;;;4.20;;
19782;SDS011;10051;40.294;-3.754;2023-06-04T01:40:33;5.72;;;4.43;;
19782;SDS011;10051;40.294;-3.754;2023-06-04T01:43:00;6.95;;;4.32;;
19782;SDS011;10051;40.294;-3.754;2023-06-04T01:45:26;6.80;;;4.50;;
19782;SDS011;10051;40.294;-3.754;2023-06-04T01:47:52;6.68;;;4.53;;
19782;SDS011;10051;40.294;-3.754;2023-06-04T01:50:20;7.55;;;4.50;;
19782;SDS011;10051;40.294;-3.754;2023-06-04T01:52:46;5.97;;;4.20;;
19782;SDS011;10051;40.294;-3.754;2023-06-04T01:55:13;6.88;;;4.55;;
19782;SDS011;10051;40.294;-3.754;2023-06-04T01:57:43;8.93;;;4.78;;
19782;SDS011;10051;40.294;-3.754;2023-06-04T02:00:13;10.00;;;4.80;;
19782;SDS011;10051;40.294;-3.754;2023-06-04T02:02:40;7.28;;;4.68;;
19782;SDS011;10051;40.294;-3.754;2023-06-04T02:05:07;7.10;;;4.93;;
19782;SDS011;10051;40.294;-3.754;2023-06-04T02:07:38;7.72;;;5.20;;
19782;SDS011;10051;40.294;-3.754;2023-06-04T02:10:06;7.43;;;4.85;;
19782;SDS011;10051;40.294;-3.754;2023-06-04T02:12:35;7.85;;;5.07;;
19782;SDS011;10051;40.294;-3.754;2023-06-04T02:15:03;11.93;;;5.13;;
19782;SDS011;10051;40.294;-3.754;2023-06-04T02:17:29;7.75;;;5.30;;
19782;SDS011;10051;40.294;-3.754;2023-06-04T02:19:57;7.82;;;5.32;;
19782;SDS011;10051;40.294;-3.754;2023-06-04T02:22:24;8.18;;;5.10;;
19782;SDS011;10051;40.294;-3.754;2023-06-04T02:24:51;8.50;;;5.35;;
19782;SDS011;10051;40.294;-3.754;2023-06-04T02:27:17;10.30;;;5.22;;
19782;SDS011;10051;40.294;-3.754;2023-06-04T02:29:43;9.05;;;5.47;;
19782;SDS011;10051;40.294;-3.754;2023-06-04T02:32:09;6.68;;;5.15;;
19782;SDS011;10051;40.294;-3.754;2023-06-04T02:34:35;9.00;;;5.30;;
19782;SDS011;10051;40.294;-3.754;2023-06-04T02:37:01;8.73;;;5.45;;
19782;SDS011;10051;40.294;-3.754;2023-06-04T02:39:28;6.85;;;5.00;;
19782;SDS011;10051;40.294;-3.754;2023-06-04T02:41:54;8.40;;;5.53;;
19782;SDS011;10051;40.294;-3.754;2023-06-04T02:44:20;11.48;;;5.85;;
19782;SDS011;10051;40.294;-3.754;2023-06-04T02:46:46;7.97;;;5.47;;
19782;SDS011;10051;40.294;-3.754;2023-06-04T02:49:13;8.05;;;5.55;;
19782;SDS011;10051;40.294;-3.754;2023-06-04T02:51:42;8.73;;;6.07;;
19782;SDS011;10051;40.294;-3.754;2023-06-04T02:54:09;9.85;;;6.10;;
19782;SDS011;10051;40.294;-3.754;2023-06-04T02:56:38;9.60;;;6.40;;
19782;SDS011;10051;40.294;-3.754;2023-06-04T02:59:05;10.88;;;6.68;;
19782;SDS011;10051;40.294;-3.754;2023-06-04T03:01:34;12.05;;;7.00;;
19782;SDS011;10051;40.294;-3.754;2023-06-04T03:04:03;10.20;;;7.03;;
19782;SDS011;10051;40.294;-3.754;2023-06-04T03:06:36;11.80;;;7.93;;
19782;SDS011;10051;40.294;-3.754;2023-06-04T03:09:03;12.20;;;7.80;;
19782;SDS011;10051;40.294;-3.754;2023-06-04T03:11:29;12.80;;;8.30;;
19782;SDS011;10051;40.294;-3.754;2023-06-04T03:13:55;13.32;;;8.38;;
19782;SDS011;10051;40.294;-3.754;2023-06-04T03:16:21;12.35;;;8.32;;
19782;SDS011;10051;40.294;-3.754;2023-06-04T03:18:47;12.25;;;8.50;;
19782;SDS011;10051;40.294;-3.754;2023-06-04T03:21:13;12.55;;;8.82;;
19782;SDS011;10051;40.294;-3.754;2023-06-04T03:23:39;11.75;;;8.20;;
19782;SDS011;10051;40.294;-3.754;2023-06-04T03:26:05;13.25;;;8.48;;
19782;SDS011;10051;40.294;-3.754;2023-06-04T03:28:31;11.55;;;8.07;;
19782;SDS011;10051;40.294;-3.754;2023-06-04T03:30:58;13.68;;;7.75;;
19782;SDS011;10051;40.294;-3.754;2023-06-04T03:33:27;11.23;;;7.70;;
19782;SDS011;10051;40.294;-3.754;2023-06-04T03:35:53;12.13;;;7.32;;
19782;SDS011;10051;40.294;-3.754;2023-06-04T03:38:27;13.07;;;7.22;;
19782;SDS011;10051;40.294;-3.754;2023-06-04T03:40:53;12.27;;;7.22;;
19782;SDS011;10051;40.294;-3.754;2023-06-04T03:43:19;10.57;;;6.72;;
19782;SDS011;10051;40.294;-3.754;2023-06-04T03:45:45;11.15;;;6.72;;
19782;SDS011;10051;40.294;-3.754;2023-06-04T03:48:12;11.23;;;6.60;;
19782;SDS011;10051;40.294;-3.754;2023-06-04T03:50:38;9.63;;;6.57;;
19782;SDS011;10051;40.294;-3.754;2023-06-04T03:53:11;11.43;;;6.50;;
19782;SDS011;10051;40.294;-3.754;2023-06-04T03:55:37;10.88;;;6.90;;
19782;SDS011;10051;40.294;-3.754;2023-06-04T03:58:05;10.05;;;6.72;;
19782;SDS011;10051;40.294;-3.754;2023-06-04T04:00:34;11.35;;;7.03;;
19782;SDS011;10051;40.294;-3.754;2023-06-04T04:03:01;11.63;;;7.50;;
19782;SDS011;10051;40.294;-3.754;2023-06-04T04:05:27;10.75;;;6.88;;
19782;SDS011;10051;40.294;-3.754;2023-06-04T04:07:54;11.00;;;6.65;;
19782;SDS011;10051;40.294;-3.754;2023-06-04T04:10:20;11.27;;;6.88;;
19782;SDS011;10051;40.294;-3.754;2023-06-04T04:12:46;11.85;;;6.95;;
19782;SDS011;10051;40.294;-3.754;2023-06-04T04:15:12;12.55;;;7.07;;
19782;SDS011;10051;40.294;-3.754;2023-06-04T04:17:38;11.32;;;7.82;;
19782;SDS011;10051;40.294;-3.754;2023-06-04T04:20:03;14.77;;;7.80;;
19782;SDS011;10051;40.294;-3.754;2023-06-04T04:22:30;11.75;;;7.60;;
19782;SDS011;10051;40.294;-3.754;2023-06-04T04:24:56;10.43;;;7.70;;
19782;SDS011;10051;40.294;-3.754;2023-06-04T04:27:23;17.20;;;8.00;;
19782;SDS011;10051;40.294;-3.754;2023-06-04T04:29:51;12.73;;;7.82;;
19782;SDS011;10051;40.294;-3.754;2023-06-04T04:32:25;13.82;;;7.93;;
19782;SDS011;10051;40.294;-3.754;2023-06-04T04:34:52;12.85;;;7.70;;
19782;SDS011;10051;40.294;-3.754;2023-06-04T04:37:20;10.90;;;8.05;;
19782;SDS011;10051;40.294;-3.754;2023-06-04T04:39:47;16.63;;;8.05;;
19782;SDS011;10051;40.294;-3.754;2023-06-04T04:42:15;11.52;;;7.47;;
19782;SDS011;10051;40.294;-3.754;2023-06-04T04:44:40;9.95;;;7.63;;
19782;SDS011;10051;40.294;-3.754;2023-06-04T04:47:06;10.95;;;7.45;;
19782;SDS011;10051;40.294;-3.754;2023-06-04T04:49:32;11.35;;;7.32;;
19782;SDS011;10051;40.294;-3.754;2023-06-04T04:52:00;10.10;;;7.20;;
19782;SDS011;10051;40.294;-3.754;2023-06-04T04:54:25;11.10;;;7.13;;
19782;SDS011;10051;40.294;-3.754;2023-06-04T04:56:52;11.38;;;6.60;;
19782;SDS011;10051;40.294;-3.754;2023-06-04T04:59:19;12.52;;;6.78;;
19782;SDS011;10051;40.294;-3.754;2023-06-04T05:01:46;11.77;;;6.78;;
19782;SDS011;10051;40.294;-3.754;2023-06-04T05:04:12;9.23;;;6.20;;
19782;SDS011;10051;40.294;-3.754;2023-06-04T05:06:38;8.68;;;6.03;;
19782;SDS011;10051;40.294;-3.754;2023-06-04T05:09:03;7.90;;;5.60;;
19782;SDS011;10051;40.294;-3.754;2023-06-04T05:11:29;8.82;;;5.97;;
19782;SDS011;10051;40.294;-3.754;2023-06-04T05:13:55;11.45;;;6.15;;
19782;SDS011;10051;40.294;-3.754;2023-06-04T05:16:23;9.75;;;6.15;;
19782;SDS011;10051;40.294;-3.754;2023-06-04T05:18:54;10.55;;;6.07;;
19782;SDS011;10051;40.294;-3.754;2023-06-04T05:21:22;9.98;;;6.30;;
19782;SDS011;10051;40.294;-3.754;2023-06-04T05:23:47;10.95;;;6.30;;
19782;SDS011;10051;40.294;-3.754;2023-06-04T05:26:13;10.57;;;6.20;;
19782;SDS011;10051;40.294;-3.754;2023-06-04T05:28:40;8.68;;;5.97;;
19782;SDS011;10051;40.294;-3.754;2023-06-04T05:31:09;10.32;;;5.90;;
19782;SDS011;10051;40.294;-3.754;2023-06-04T05:33:38;9.25;;;5.90;;
19782;SDS011;10051;40.294;-3.754;2023-06-04T05:36:04;9.30;;;5.95;;
19782;SDS011;10051;40.294;-3.754;2023-06-04T05:38:30;11.30;;;6.00;;
19782;SDS011;10051;40.294;-3.754;2023-06-04T05:40:56;8.93;;;6.20;;
19782;SDS011;10051;40.294;-3.754;2023-06-04T05:43:25;10.10;;;6.03;;
19782;SDS011;10051;40.294;-3.754;2023-06-04T05:45:52;8.65;;;5.72;;
19782;SDS011;10051;40.294;-3.754;2023-06-04T05:48:18;10.38;;;6.07;;
19782;SDS011;10051;40.294;-3.754;2023-06-04T05:50:50;10.38;;;6.07;;
19782;SDS011;10051;40.294;-3.754;2023-06-04T05:53:16;11.00;;;6.43;;
19782;SDS011;10051;40.294;-3.754;2023-06-04T05:55:48;10.50;;;5.75;;
19782;SDS011;10051;40.294;-3.754;2023-06-04T05:58:13;9.27;;;5.90;;
19782;SDS011;10051;40.294;-3.754;2023-06-04T06:00:40;8.65;;;6.00;;
19782;SDS011;10051;40.294;-3.754;2023-06-04T06:03:09;8.63;;;5.78;;
19782;SDS011;10051;40.294;-3.754;2023-06-04T06:05:41;10.18;;;5.80;;
19782;SDS011;10051;40.294;-3.754;2023-06-04T06:08:08;11.57;;;6.43;;
19782;SDS011;10051;40.294;-3.754;2023-06-04T06:10:34;9.68;;;6.13;;
19782;SDS011;10051;40.294;-3.754;2023-06-04T06:13:00;8.75;;;6.10;;
19782;SDS011;10051;40.294;-3.754;2023-06-04T06:15:26;12.98;;;6.00;;
19782;SDS011;10051;40.294;-3.754;2023-06-04T06:17:53;11.07;;;7.00;;
19782;SDS011;10051;40.294;-3.754;2023-06-04T06:20:19;9.68;;;6.57;;
19782;SDS011;10051;40.294;-3.754;2023-06-04T06:22:47;9.98;;;6.35;;
19782;SDS011;10051;40.294;-3.754;2023-06-04T06:25:13;9.45;;;6.35;;
19782;SDS011;10051;40.294;-3.754;2023-06-04T06:27:41;10.75;;;6.50;;
19782;SDS011;10051;40.294;-3.754;2023-06-04T06:30:07;7.97;;;6.18;;
19782;SDS011;10051;40.294;-3.754;2023-06-04T06:32:33;11.10;;;6.00;;
19782;SDS011;10051;40.294;-3.754;2023-06-04T06:35:00;8.95;;;5.60;;
19782;SDS011;10051;40.294;-3.754;2023-06-04T06:37:26;7.30;;;5.50;;
19782;SDS011;10051;40.294;-3.754;2023-06-04T06:39:52;10.60;;;5.63;;
19782;SDS011;10051;40.294;-3.754;2023-06-04T06:42:17;9.02;;;5.45;;
19782;SDS011;10051;40.294;-3.754;2023-06-04T06:44:44;8.50;;;5.40;;
19782;SDS011;10051;40.294;-3.754;2023-06-04T06:47:10;9.98;;;5.70;;
19782;SDS011;10051;40.294;-3.754;2023-06-04T06:49:42;10.93;;;5.60;;
19782;SDS011;10051;40.294;-3.754;2023-06-04T06:52:09;7.97;;;5.40;;
19782;SDS011;10051;40.294;-3.754;2023-06-04T06:54:35;8.40;;;5.30;;
19782;SDS011;10051;40.294;-3.754;2023-06-04T06:57:04;8.13;;;5.53;;
19782;SDS011;10051;40.294;-3.754;2023-06-04T06:59:33;8.68;;;5.60;;
19782;SDS011;10051;40.294;-3.754;2023-06-04T07:01:59;12.85;;;5.45;;
19782;SDS011;10051;40.294;-3.754;2023-06-04T07:04:25;8.02;;;5.30;;
19782;SDS011;10051;40.294;-3.754;2023-06-04T07:06:51;10.32;;;5.15;;
19782;SDS011;10051;40.294;-3.754;2023-06-04T07:09:17;9.60;;;5.85;;
19782;SDS011;10051;40.294;-3.754;2023-06-04T07:11:43;7.90;;;4.95;;
19782;SDS011;10051;40.294;-3.754;2023-06-04T07:14:08;7.30;;;5.00;;
19782;SDS011;10051;40.294;-3.754;2023-06-04T07:16:35;7.18;;;4.97;;
19782;SDS011;10051;40.294;-3.754;2023-06-04T07:19:01;9.13;;;5.32;;
19782;SDS011;10051;40.294;-3.754;2023-06-04T07:21:30;7.93;;;5.18;;
19782;SDS011;10051;40.294;-3.754;2023-06-04T07:23:56;7.65;;;5.10;;
19782;SDS011;10051;40.294;-3.754;2023-06-04T07:26:27;8.38;;;5.50;;
19782;SDS011;10051;40.294;-3.754;2023-06-04T07:28:55;11.95;;;5.38;;
19782;SDS011;10051;40.294;-3.754;2023-06-04T07:31:22;9.00;;;5.70;;
19782;SDS011;10051;40.294;-3.754;2023-06-04T07:33:48;10.23;;;5.57;;
19782;SDS011;10051;40.294;-3.754;2023-06-04T07:36:13;8.18;;;5.30;;
19782;SDS011;10051;40.294;-3.754;2023-06-04T07:38:43;8.98;;;4.93;;
19782;SDS011;10051;40.294;-3.754;2023-06-04T07:41:09;10.15;;;5.00;;
19782;SDS011;10051;40.294;-3.754;2023-06-04T07:43:35;9.68;;;4.88;;
19782;SDS011;10051;40.294;-3.754;2023-06-04T07:46:04;9.23;;;4.88;;
19782;SDS011;10051;40.294;-3.754;2023-06-04T07:48:30;8.18;;;4.90;;
19782;SDS011;10051;40.294;-3.754;2023-06-04T07:51:00;9.25;;;5.72;;
19782;SDS011;10051;40.294;-3.754;2023-06-04T07:53:28;8.75;;;4.85;;
19782;SDS011;10051;40.294;-3.754;2023-06-04T07:55:54;10.80;;;4.97;;
19782;SDS011;10051;40.294;-3.754;2023-06-04T07:58:20;9.82;;;4.93;;
19782;SDS011;10051;40.294;-3.754;2023-06-04T08:00:46;8.98;;;5.05;;
19782;SDS011;10051;40.294;-3.754;2023-06-04T08:03:16;9.40;;;4.80;;
19782;SDS011;10051;40.294;-3.754;2023-06-04T08:05:45;7.47;;;4.80;;
19782;SDS011;10051;40.294;-3.754;2023-06-04T08:08:11;11.27;;;4.93;;
19782;SDS011;10051;40.294;-3.754;2023-06-04T08:10:38;12.23;;;6.70;;
19782;SDS011;10051;40.294;-3.754;2023-06-04T08:13:06;8.02;;;5.05;;
19782;SDS011;10051;40.294;-3.754;2023-06-04T08:15:32;10.02;;;5.05;;
19782;SDS011;10051;40.294;-3.754;2023-06-04T08:17:57;10.65;;;5.32;;
19782;SDS011;10051;40.294;-3.754;2023-06-04T08:20:26;9.43;;;5.13;;
19782;SDS011;10051;40.294;-3.754;2023-06-04T08:22:52;8.30;;;5.40;;
19782;SDS011;10051;40.294;-3.754;2023-06-04T08:25:18;7.40;;;4.80;;
19782;SDS011;10051;40.294;-3.754;2023-06-04T08:27:44;8.98;;;4.70;;
19782;SDS011;10051;40.294;-3.754;2023-06-04T08:30:10;8.07;;;4.80;;
19782;SDS011;10051;40.294;-3.754;2023-06-04T08:32:36;10.63;;;4.63;;
19782;SDS011;10051;40.294;-3.754;2023-06-04T08:35:03;8.05;;;4.68;;
19782;SDS011;10051;40.294;-3.754;2023-06-04T08:37:32;7.38;;;4.70;;
19782;SDS011;10051;40.294;-3.754;2023-06-04T08:39:58;8.52;;;4.53;;
19782;SDS011;10051;40.294;-3.754;2023-06-04T08:42:34;7.93;;;4.70;;
19782;SDS011;10051;40.294;-3.754;2023-06-04T08:45:06;6.82;;;4.45;;
19782;SDS011;10051;40.294;-3.754;2023-06-04T08:47:37;6.47;;;4.55;;
19782;SDS011;10051;40.294;-3.754;2023-06-04T08:50:08;8.55;;;4.75;;
19782;SDS011;10051;40.294;-3.754;2023-06-04T08:52:36;6.88;;;4.72;;
19782;SDS011;10051;40.294;-3.754;2023-06-04T08:55:06;8.93;;;4.80;;
19782;SDS011;10051;40.294;-3.754;2023-06-04T08:57:34;8.75;;;5.22;;
19782;SDS011;10051;40.294;-3.754;2023-06-04T09:00:05;8.82;;;5.00;;
19782;SDS011;10051;40.294;-3.754;2023-06-04T09:02:33;8.80;;;5.05;;
19782;SDS011;10051;40.294;-3.754;2023-06-04T09:05:03;13.95;;;5.22;;
19782;SDS011;10051;40.294;-3.754;2023-06-04T09:07:30;11.23;;;4.97;;
19782;SDS011;10051;40.294;-3.754;2023-06-04T09:10:00;8.05;;;5.00;;
19782;SDS011;10051;40.294;-3.754;2023-06-04T09:12:27;7.38;;;5.53;;
19782;SDS011;10051;40.294;-3.754;2023-06-04T09:14:54;9.98;;;4.93;;
19782;SDS011;10051;40.294;-3.754;2023-06-04T09:17:23;10.60;;;5.38;;
19782;SDS011;10051;40.294;-3.754;2023-06-04T09:19:50;8.63;;;5.28;;
19782;SDS011;10051;40.294;-3.754;2023-06-04T09:22:16;9.27;;;4.97;;
19782;SDS011;10051;40.294;-3.754;2023-06-04T09:24:43;10.77;;;4.78;;
19782;SDS011;10051;40.294;-3.754;2023-06-04T09:27:18;8.35;;;5.20;;
19782;SDS011;10051;40.294;-3.754;2023-06-04T09:29:54;9.00;;;5.10;;
19782;SDS011;10051;40.294;-3.754;2023-06-04T09:32:24;8.88;;;5.57;;
19782;SDS011;10051;40.294;-3.754;2023-06-04T09:34:52;8.32;;;5.25;;
19782;SDS011;10051;40.294;-3.754;2023-06-04T09:37:19;11.35;;;5.43;;
19782;SDS011;10051;40.294;-3.754;2023-06-04T09:39:54;13.40;;;5.57;;
19782;SDS011;10051;40.294;-3.754;2023-06-04T09:42:21;13.60;;;5.30;;
19782;SDS011;10051;40.294;-3.754;2023-06-04T09:44:47;8.77;;;5.45;;
19782;SDS011;10051;40.294;-3.754;2023-06-04T09:47:13;8.98;;;5.57;;
19782;SDS011;10051;40.294;-3.754;2023-06-04T09:49:47;7.28;;;5.00;;
19782;SDS011;10051;40.294;-3.754;2023-06-04T09:52:16;9.57;;;5.50;;
19782;SDS011;10051;40.294;-3.754;2023-06-04T09:54:42;7.90;;;5.53;;
19782;SDS011;10051;40.294;-3.754;2023-06-04T09:57:15;11.68;;;5.90;;
19782;SDS011;10051;40.294;-3.754;2023-06-04T09:59:43;10.00;;;5.15;;
19782;SDS011;10051;40.294;-3.754;2023-06-04T10:02:13;9.20;;;5.30;;
19782;SDS011;10051;40.294;-3.754;2023-06-04T10:04:56;9.07;;;5.47;;
19782;SDS011;10051;40.294;-3.754;2023-06-04T10:07:24;11.38;;;5.68;;
19782;SDS011;10051;40.294;-3.754;2023-06-04T10:09:54;9.55;;;6.10;;
19782;SDS011;10051;40.294;-3.754;2023-06-04T10:12:25;7.95;;;5.50;;
19782;SDS011;10051;40.294;-3.754;2023-06-04T10:14:56;11.52;;;5.88;;
19782;SDS011;10051;40.294;-3.754;2023-06-04T10:17:28;9.48;;;5.38;;
19782;SDS011;10051;40.294;-3.754;2023-06-04T10:19:55;8.52;;;6.18;;
19782;SDS011;10051;40.294;-3.754;2023-06-04T10:22:23;9.55;;;5.60;;
19782;SDS011;10051;40.294;-3.754;2023-06-04T10:24:49;7.97;;;5.00;;
19782;SDS011;10051;40.294;-3.754;2023-06-04T10:27:16;7.38;;;4.82;;
19782;SDS011;10051;40.294;-3.754;2023-06-04T10:29:43;10.88;;;5.80;;
19782;SDS011;10051;40.294;-3.754;2023-06-04T10:32:11;9.07;;;5.47;;
19782;SDS011;10051;40.294;-3.754;2023-06-04T10:34:37;8.45;;;5.60;;
19782;SDS011;10051;40.294;-3.754;2023-06-04T10:37:03;10.32;;;5.38;;
19782;SDS011;10051;40.294;-3.754;2023-06-04T10:39:29;9.32;;;5.10;;
19782;SDS011;10051;40.294;-3.754;2023-06-04T10:44:27;9.57;;;5.30;;
19782;SDS011;10051;40.294;-3.754;2023-06-04T10:46:55;10.40;;;4.85;;
19782;SDS011;10051;40.294;-3.754;2023-06-04T10:49:26;8.57;;;4.85;;
19782;SDS011;10051;40.294;-3.754;2023-06-04T10:52:09;8.85;;;5.13;;
19782;SDS011;10051;40.294;-3.754;2023-06-04T10:54:35;7.78;;;4.53;;
19782;SDS011;10051;40.294;-3.754;2023-06-04T10:57:09;8.93;;;4.40;;
19782;SDS011;10051;40.294;-3.754;2023-06-04T10:59:39;9.27;;;4.85;;
19782;SDS011;10051;40.294;-3.754;2023-06-04T11:02:06;7.47;;;4.38;;
19782;SDS011;10051;40.294;-3.754;2023-06-04T11:04:32;10.50;;;4.75;;
19782;SDS011;10051;40.294;-3.754;2023-06-04T11:07:05;7.78;;;4.07;;
19782;SDS011;10051;40.294;-3.754;2023-06-04T11:09:36;6.43;;;4.72;;
19782;SDS011;10051;40.294;-3.754;2023-06-04T11:12:04;11.65;;;5.07;;
19782;SDS011;10051;40.294;-3.754;2023-06-04T11:14:30;7.75;;;4.65;;
19782;SDS011;10051;40.294;-3.754;2023-06-04T11:17:12;8.85;;;4.97;;
19782;SDS011;10051;40.294;-3.754;2023-06-04T11:19:39;8.00;;;4.68;;
19782;SDS011;10051;40.294;-3.754;2023-06-04T11:22:05;8.65;;;4.07;;
19782;SDS011;10051;40.294;-3.754;2023-06-04T11:24:33;5.70;;;3.85;;
19782;SDS011;10051;40.294;-3.754;2023-06-04T11:27:00;7.88;;;4.60;;
19782;SDS011;10051;40.294;-3.754;2023-06-04T11:29:25;8.20;;;4.82;;
19782;SDS011;10051;40.294;-3.754;2023-06-04T11:31:51;7.97;;;4.38;;
19782;SDS011;10051;40.294;-3.754;2023-06-04T11:34:27;5.80;;;3.67;;
19782;SDS011;10051;40.294;-3.754;2023-06-04T11:37:07;6.82;;;4.68;;
19782;SDS011;10051;40.294;-3.754;2023-06-04T11:39:42;5.55;;;3.90;;
19782;SDS011;10051;40.294;-3.754;2023-06-04T11:42:09;7.63;;;4.07;;
19782;SDS011;10051;40.294;-3.754;2023-06-04T11:44:35;7.25;;;3.80;;
19782;SDS011;10051;40.294;-3.754;2023-06-04T11:47:05;6.18;;;3.80;;
19782;SDS011;10051;40.294;-3.754;2023-06-04T11:49:33;7.82;;;3.95;;
19782;SDS011;10051;40.294;-3.754;2023-06-04T11:52:01;10.30;;;4.78;;
19782;SDS011;10051;40.294;-3.754;2023-06-04T11:54:27;6.75;;;4.03;;
19782;SDS011;10051;40.294;-3.754;2023-06-04T11:56:53;4.78;;;3.45;;
19782;SDS011;10051;40.294;-3.754;2023-06-04T11:59:28;7.13;;;3.95;;
19782;SDS011;10051;40.294;-3.754;2023-06-04T12:01:58;6.45;;;3.42;;
19782;SDS011;10051;40.294;-3.754;2023-06-04T12:04:24;4.35;;;2.80;;
19782;SDS011;10051;40.294;-3.754;2023-06-04T12:07:00;3.80;;;2.60;;
19782;SDS011;10051;40.294;-3.754;2023-06-04T12:09:30;4.57;;;2.80;;
19782;SDS011;10051;40.294;-3.754;2023-06-04T12:12:00;5.70;;;2.70;;
19782;SDS011;10051;40.294;-3.754;2023-06-04T12:14:28;4.32;;;2.47;;
19782;SDS011;10051;40.294;-3.754;2023-06-04T12:16:58;4.70;;;2.97;;
19782;SDS011;10051;40.294;-3.754;2023-06-04T12:19:32;4.05;;;2.53;;
19782;SDS011;10051;40.294;-3.754;2023-06-04T12:22:03;6.20;;;2.78;;
19782;SDS011;10051;40.294;-3.754;2023-06-04T12:24:34;4.60;;;2.60;;
19782;SDS011;10051;40.294;-3.754;2023-06-04T12:27:12;4.63;;;2.53;;
19782;SDS011;10051;40.294;-3.754;2023-06-04T12:29:38;3.67;;;2.30;;
19782;SDS011;10051;40.294;-3.754;2023-06-04T12:32:05;5.13;;;2.22;;
19782;SDS011;10051;40.294;-3.754;2023-06-04T12:34:38;5.55;;;2.42;;
19782;SDS011;10051;40.294;-3.754;2023-06-04T12:37:05;3.90;;;2.50;;
19782;SDS011;10051;40.294;-3.754;2023-06-04T12:39:33;3.00;;;2.30;;
19782;SDS011;10051;40.294;-3.754;2023-06-04T12:41:59;5.28;;;2.78;;
19782;SDS011;10051;40.294;-3.754;2023-06-04T12:44:26;3.90;;;2.42;;
19782;SDS011;10051;40.294;-3.754;2023-06-04T12:47:04;6.65;;;2.67;;
19782;SDS011;10051;40.294;-3.754;2023-06-04T12:49:42;3.53;;;2.30;;
19782;SDS011;10051;40.294;-3.754;2023-06-04T12:52:09;3.17;;;2.42;;
19782;SDS011;10051;40.294;-3.754;2023-06-04T12:54:35;4.60;;;2.60;;
19782;SDS011;10051;40.294;-3.754;2023-06-04T12:57:02;4.70;;;2.60;;
19782;SDS011;10051;40.294;-3.754;2023-06-04T12:59:30;6.20;;;2.53;;
19782;SDS011;10051;40.294;-3.754;2023-06-04T13:01:56;4.80;;;2.40;;
19782;SDS011;10051;40.294;-3.754;2023-06-04T13:04:25;4.80;;;2.60;;
19782;SDS011;10051;40.294;-3.754;2023-06-04T13:06:55;3.25;;;2.40;;
19782;SDS011;10051;40.294;-3.754;2023-06-04T13:09:24;3.88;;;2.33;;
19782;SDS011;10051;40.294;-3.754;2023-06-04T13:11:50;4.95;;;2.83;;
19782;SDS011;10051;40.294;-3.754;2023-06-04T13:14:16;3.85;;;2.47;;
19782;SDS011;10051;40.294;-3.754;2023-06-04T13:16:45;4.05;;;2.60;;
19782;SDS011;10051;40.294;-3.754;2023-06-04T13:19:13;4.78;;;2.60;;
19782;SDS011;10051;40.294;-3.754;2023-06-04T13:21:45;4.00;;;2.47;;
19782;SDS011;10051;40.294;-3.754;2023-06-04T13:24:11;3.65;;;2.30;;
19782;SDS011;10051;40.294;-3.754;2023-06-04T13:26:40;3.47;;;2.40;;
19782;SDS011;10051;40.294;-3.754;2023-06-04T13:29:12;4.13;;;2.47;;
19782;SDS011;10051;40.294;-3.754;2023-06-04T13:31:39;3.67;;;2.40;;
19782;SDS011;10051;40.294;-3.754;2023-06-04T13:34:05;3.58;;;2.38;;
19782;SDS011;10051;40.294;-3.754;2023-06-04T13:36:31;3.58;;;2.45;;
19782;SDS011;10051;40.294;-3.754;2023-06-04T13:38:57;4.13;;;2.40;;
19782;SDS011;10051;40.294;-3.754;2023-06-04T13:41:23;4.00;;;2.60;;
19782;SDS011;10051;40.294;-3.754;2023-06-04T13:43:49;6.25;;;2.40;;
19782;SDS011;10051;40.294;-3.754;2023-06-04T13:46:18;3.35;;;2.42;;
19782;SDS011;10051;40.294;-3.754;2023-06-04T13:48:47;5.78;;;2.20;;
19782;SDS011;10051;40.294;-3.754;2023-06-04T13:51:13;3.15;;;2.28;;
19782;SDS011;10051;40.294;-3.754;2023-06-04T13:53:39;3.28;;;2.40;;
19782;SDS011;10051;40.294;-3.754;2023-06-04T13:56:05;4.32;;;2.45;;
19782;SDS011;10051;40.294;-3.754;2023-06-04T13:58:33;5.15;;;2.30;;
19782;SDS011;10051;40.294;-3.754;2023-06-04T14:01:02;3.05;;;2.28;;
19782;SDS011;10051;40.294;-3.754;2023-06-04T14:03:28;5.93;;;2.78;;
19782;SDS011;10051;40.294;-3.754;2023-06-04T14:05:54;4.13;;;2.55;;
19782;SDS011;10051;40.294;-3.754;2023-06-04T14:08:23;4.22;;;2.97;;
19782;SDS011;10051;40.294;-3.754;2023-06-04T14:10:48;5.35;;;2.80;;
19782;SDS011;10051;40.294;-3.754;2023-06-04T14:13:22;3.97;;;2.50;;
19782;SDS011;10051;40.294;-3.754;2023-06-04T14:15:58;4.55;;;2.83;;
19782;SDS011;10051;40.294;-3.754;2023-06-04T14:18:34;4.13;;;2.47;;
19782;SDS011;10051;40.294;-3.754;2023-06-04T14:21:12;4.55;;;2.60;;
19782;SDS011;10051;40.294;-3.754;2023-06-04T14:23:40;4.15;;;2.33;;
19782;SDS011;10051;40.294;-3.754;2023-06-04T14:26:12;5.00;;;2.20;;
19782;SDS011;10051;40.294;-3.754;2023-06-04T14:28:52;3.55;;;2.28;;
19782;SDS011;10051;40.294;-3.754;2023-06-04T14:31:46;3.92;;;2.30;;
19782;SDS011;10051;40.294;-3.754;2023-06-04T14:34:37;4.38;;;2.10;;
19782;SDS011;10051;40.294;-3.754;2023-06-04T14:37:21;3.75;;;2.20;;
19782;SDS011;10051;40.294;-3.754;2023-06-04T14:43:30;4.43;;;2.00;;
19782;SDS011;10051;40.294;-3.754;2023-06-04T14:46:01;5.63;;;2.40;;
19782;SDS011;10051;40.294;-3.754;2023-06-04T14:48:38;3.80;;;2.00;;
19782;SDS011;10051;40.294;-3.754;2023-06-04T14:51:40;3.33;;;2.20;;
19782;SDS011;10051;40.294;-3.754;2023-06-04T14:54:16;2.67;;;2.08;;
19782;SDS011;10051;40.294;-3.754;2023-06-04T14:59:45;3.08;;;2.20;;